sensor_id;sensor_type;location;lat;lon;timestamp;temperature;humidity
8563;DHT22;16392;52.508;13.468;2022-08-21T00:00:00;19.70;99.90
8563;DHT22;16392;52.508;13.468;2022-08-21T00:02:28;19.70;99.90
8563;DHT22;16392;52.508;13.468;2022-08-21T00:04:55;19.70;99.90
8563;DHT22;16392;52.508;13.468;2022-08-21T00:07:21;19.70;99.90
8563;DHT22;16392;52.508;13.468;2022-08-21T00:09:48;19.60;99.90
8563;DHT22;16392;52.508;13.468;2022-08-21T00:12:15;19.50;99.90
8563;DHT22;16392;52.508;13.468;2022-08-21T00:14:41;19.50;99.90
8563;DHT22;16392;52.508;13.468;2022-08-21T00:17:09;19.50;99.90
8563;DHT22;16392;52.508;13.468;2022-08-21T00:19:36;19.50;99.90
8563;DHT22;16392;52.508;13.468;2022-08-21T00:22:03;19.50;99.90
8563;DHT22;16392;52.508;13.468;2022-08-21T00:24:29;19.50;99.90
8563;DHT22;16392;52.508;13.468;2022-08-21T00:26:56;19.40;99.90
8563;DHT22;16392;52.508;13.468;2022-08-21T00:29:24;19.40;99.90
8563;DHT22;16392;52.508;13.468;2022-08-21T00:31:50;19.40;99.90
8563;DHT22;16392;52.508;13.468;2022-08-21T00:34:18;19.40;99.90
8563;DHT22;16392;52.508;13.468;2022-08-21T00:36:45;19.40;99.90
8563;DHT22;16392;52.508;13.468;2022-08-21T00:39:11;19.40;99.90
8563;DHT22;16392;52.508;13.468;2022-08-21T00:41:38;19.30;99.90
8563;DHT22;16392;52.508;13.468;2022-08-21T00:44:06;19.30;99.90
8563;DHT22;16392;52.508;13.468;2022-08-21T00:46:33;19.30;99.90
8563;DHT22;16392;52.508;13.468;2022-08-21T00:49:00;19.30;99.90
8563;DHT22;16392;52.508;13.468;2022-08-21T00:51:36;19.30;99.90
8563;DHT22;16392;52.508;13.468;2022-08-21T00:54:04;19.30;99.90
8563;DHT22;16392;52.508;13.468;2022-08-21T00:56:32;19.20;99.90
8563;DHT22;16392;52.508;13.468;2022-08-21T00:58:59;19.20;99.90
8563;DHT22;16392;52.508;13.468;2022-08-21T01:01:26;19.20;99.90
8563;DHT22;16392;52.508;13.468;2022-08-21T01:03:53;19.20;99.90
8563;DHT22;16392;52.508;13.468;2022-08-21T01:06:20;19.20;99.90
8563;DHT22;16392;52.508;13.468;2022-08-21T01:08:48;19.30;99.90
8563;DHT22;16392;52.508;13.468;2022-08-21T01:11:16;19.20;99.90
8563;DHT22;16392;52.508;13.468;2022-08-21T01:13:43;19.10;99.90
8563;DHT22;16392;52.508;13.468;2022-08-21T01:16:14;19.10;99.90
8563;DHT22;16392;52.508;13.468;2022-08-21T01:18:42;19.10;99.90
8563;DHT22;16392;52.508;13.468;2022-08-21T01:21:12;19.10;99.90
8563;DHT22;16392;52.508;13.468;2022-08-21T01:23:44;19.00;99.90
8563;DHT22;16392;52.508;13.468;2022-08-21T01:26:12;19.00;99.90
8563;DHT22;16392;52.508;13.468;2022-08-21T01:28:42;19.00;99.90
8563;DHT22;16392;52.508;13.468;2022-08-21T01:31:12;19.00;99.90
8563;DHT22;16392;52.508;13.468;2022-08-21T01:33:40;19.00;99.90
8563;DHT22;16392;52.508;13.468;2022-08-21T01:36:07;19.00;99.90
8563;DHT22;16392;52.508;13.468;2022-08-21T01:38:35;19.00;99.90
8563;DHT22;16392;52.508;13.468;2022-08-21T01:41:01;19.00;99.90
8563;DHT22;16392;52.508;13.468;2022-08-21T01:43:28;19.00;99.90
8563;DHT22;16392;52.508;13.468;2022-08-21T01:45:55;19.00;99.90
8563;DHT22;16392;52.508;13.468;2022-08-21T01:48:21;19.00;99.90
8563;DHT22;16392;52.508;13.468;2022-08-21T01:50:48;19.00;99.90
8563;DHT22;16392;52.508;13.468;2022-08-21T01:53:14;19.00;99.90
8563;DHT22;16392;52.508;13.468;2022-08-21T01:55:43;18.90;99.90
8563;DHT22;16392;52.508;13.468;2022-08-21T01:58:09;18.80;99.90
8563;DHT22;16392;52.508;13.468;2022-08-21T02:00:36;18.80;99.90
8563;DHT22;16392;52.508;13.468;2022-08-21T02:03:03;18.80;99.90
8563;DHT22;16392;52.508;13.468;2022-08-21T02:05:30;18.80;99.90
8563;DHT22;16392;52.508;13.468;2022-08-21T02:07:56;18.70;99.90
8563;DHT22;16392;52.508;13.468;2022-08-21T02:10:26;18.70;99.90
8563;DHT22;16392;52.508;13.468;2022-08-21T02:12:56;18.60;99.90
8563;DHT22;16392;52.508;13.468;2022-08-21T02:15:23;18.50;99.90
8563;DHT22;16392;52.508;13.468;2022-08-21T02:17:52;18.40;99.90
8563;DHT22;16392;52.508;13.468;2022-08-21T02:20:22;18.40;99.90
8563;DHT22;16392;52.508;13.468;2022-08-21T02:22:49;18.40;99.90
8563;DHT22;16392;52.508;13.468;2022-08-21T02:25:18;18.40;99.90
8563;DHT22;16392;52.508;13.468;2022-08-21T02:27:46;18.40;99.90
8563;DHT22;16392;52.508;13.468;2022-08-21T02:30:17;18.40;99.90
8563;DHT22;16392;52.508;13.468;2022-08-21T02:32:44;18.30;99.90
8563;DHT22;16392;52.508;13.468;2022-08-21T02:35:12;18.30;99.90
8563;DHT22;16392;52.508;13.468;2022-08-21T02:37:47;18.20;99.90
8563;DHT22;16392;52.508;13.468;2022-08-21T02:40:15;18.10;99.90
8563;DHT22;16392;52.508;13.468;2022-08-21T02:42:43;18.10;99.90
8563;DHT22;16392;52.508;13.468;2022-08-21T02:45:10;18.10;99.90
8563;DHT22;16392;52.508;13.468;2022-08-21T02:47:38;18.10;99.90
8563;DHT22;16392;52.508;13.468;2022-08-21T02:50:06;18.10;99.90
8563;DHT22;16392;52.508;13.468;2022-08-21T02:52:33;18.00;99.90
8563;DHT22;16392;52.508;13.468;2022-08-21T02:55:00;18.00;99.90
8563;DHT22;16392;52.508;13.468;2022-08-21T02:57:27;18.00;99.90
8563;DHT22;16392;52.508;13.468;2022-08-21T02:59:54;18.00;99.90
8563;DHT22;16392;52.508;13.468;2022-08-21T03:02:20;18.00;99.90
8563;DHT22;16392;52.508;13.468;2022-08-21T03:04:48;17.90;99.90
8563;DHT22;16392;52.508;13.468;2022-08-21T03:07:15;17.80;99.90
8563;DHT22;16392;52.508;13.468;2022-08-21T03:09:42;17.80;99.90
8563;DHT22;16392;52.508;13.468;2022-08-21T03:12:08;17.80;99.90
8563;DHT22;16392;52.508;13.468;2022-08-21T03:14:35;17.80;99.90
8563;DHT22;16392;52.508;13.468;2022-08-21T03:17:01;17.70;99.90
8563;DHT22;16392;52.508;13.468;2022-08-21T03:19:28;17.80;99.90
8563;DHT22;16392;52.508;13.468;2022-08-21T03:21:56;17.70;99.90
8563;DHT22;16392;52.508;13.468;2022-08-21T03:24:22;17.70;99.90
8563;DHT22;16392;52.508;13.468;2022-08-21T03:26:49;17.70;99.90
8563;DHT22;16392;52.508;13.468;2022-08-21T03:29:16;17.70;99.90
8563;DHT22;16392;52.508;13.468;2022-08-21T03:31:42;17.70;99.90
8563;DHT22;16392;52.508;13.468;2022-08-21T03:34:09;17.70;99.90
8563;DHT22;16392;52.508;13.468;2022-08-21T03:36:36;17.80;99.90
8563;DHT22;16392;52.508;13.468;2022-08-21T03:39:04;17.80;99.90
8563;DHT22;16392;52.508;13.468;2022-08-21T03:41:31;17.70;99.90
8563;DHT22;16392;52.508;13.468;2022-08-21T03:43:57;17.70;99.90
8563;DHT22;16392;52.508;13.468;2022-08-21T03:46:24;17.70;99.90
8563;DHT22;16392;52.508;13.468;2022-08-21T03:48:52;17.60;99.90
8563;DHT22;16392;52.508;13.468;2022-08-21T03:51:18;17.60;99.90
8563;DHT22;16392;52.508;13.468;2022-08-21T03:53:45;17.60;99.90
8563;DHT22;16392;52.508;13.468;2022-08-21T03:56:13;17.60;99.90
8563;DHT22;16392;52.508;13.468;2022-08-21T03:58:41;17.60;99.90
8563;DHT22;16392;52.508;13.468;2022-08-21T04:01:08;17.50;99.90
8563;DHT22;16392;52.508;13.468;2022-08-21T04:03:36;17.50;99.90
8563;DHT22;16392;52.508;13.468;2022-08-21T04:06:03;17.50;99.90
8563;DHT22;16392;52.508;13.468;2022-08-21T04:08:30;17.60;99.90
8563;DHT22;16392;52.508;13.468;2022-08-21T04:10:58;17.50;99.90
8563;DHT22;16392;52.508;13.468;2022-08-21T04:13:26;17.50;99.90
8563;DHT22;16392;52.508;13.468;2022-08-21T04:15:54;17.40;99.90
8563;DHT22;16392;52.508;13.468;2022-08-21T04:18:20;17.40;99.90
8563;DHT22;16392;52.508;13.468;2022-08-21T04:20:49;17.40;99.90
8563;DHT22;16392;52.508;13.468;2022-08-21T04:23:17;17.40;99.90
8563;DHT22;16392;52.508;13.468;2022-08-21T04:25:43;17.40;99.90
8563;DHT22;16392;52.508;13.468;2022-08-21T04:28:10;17.40;99.90
8563;DHT22;16392;52.508;13.468;2022-08-21T04:30:38;17.40;99.90
8563;DHT22;16392;52.508;13.468;2022-08-21T04:33:05;17.40;99.90
8563;DHT22;16392;52.508;13.468;2022-08-21T04:35:32;17.40;99.90
8563;DHT22;16392;52.508;13.468;2022-08-21T04:37:58;17.40;99.90
8563;DHT22;16392;52.508;13.468;2022-08-21T04:40:26;17.40;99.90
8563;DHT22;16392;52.508;13.468;2022-08-21T04:42:56;17.50;99.90
8563;DHT22;16392;52.508;13.468;2022-08-21T04:45:27;17.50;99.90
8563;DHT22;16392;52.508;13.468;2022-08-21T04:47:57;17.50;99.90
8563;DHT22;16392;52.508;13.468;2022-08-21T04:50:28;17.50;99.90
8563;DHT22;16392;52.508;13.468;2022-08-21T04:52:55;17.50;99.90
8563;DHT22;16392;52.508;13.468;2022-08-21T04:55:24;17.50;99.90
8563;DHT22;16392;52.508;13.468;2022-08-21T04:57:54;17.50;99.90
8563;DHT22;16392;52.508;13.468;2022-08-21T05:00:22;17.50;99.90
8563;DHT22;16392;52.508;13.468;2022-08-21T05:02:51;17.60;99.90
8563;DHT22;16392;52.508;13.468;2022-08-21T05:05:23;17.60;99.90
8563;DHT22;16392;52.508;13.468;2022-08-21T05:07:50;17.60;99.90
8563;DHT22;16392;52.508;13.468;2022-08-21T05:10:18;17.70;99.90
8563;DHT22;16392;52.508;13.468;2022-08-21T05:12:46;17.60;99.90
8563;DHT22;16392;52.508;13.468;2022-08-21T05:15:13;17.60;99.90
8563;DHT22;16392;52.508;13.468;2022-08-21T05:17:43;17.60;99.90
8563;DHT22;16392;52.508;13.468;2022-08-21T05:20:10;17.60;99.90
8563;DHT22;16392;52.508;13.468;2022-08-21T05:22:38;17.70;99.90
8563;DHT22;16392;52.508;13.468;2022-08-21T05:25:07;17.70;99.90
8563;DHT22;16392;52.508;13.468;2022-08-21T05:27:40;17.70;99.90
8563;DHT22;16392;52.508;13.468;2022-08-21T05:30:08;17.80;99.90
8563;DHT22;16392;52.508;13.468;2022-08-21T05:32:35;17.80;99.90
8563;DHT22;16392;52.508;13.468;2022-08-21T05:35:04;17.80;99.90
8563;DHT22;16392;52.508;13.468;2022-08-21T05:37:31;17.90;99.90
8563;DHT22;16392;52.508;13.468;2022-08-21T05:40:00;17.90;99.90
8563;DHT22;16392;52.508;13.468;2022-08-21T05:42:27;17.90;99.90
8563;DHT22;16392;52.508;13.468;2022-08-21T05:44:54;18.00;99.90
8563;DHT22;16392;52.508;13.468;2022-08-21T05:47:20;18.00;99.90
8563;DHT22;16392;52.508;13.468;2022-08-21T05:49:47;18.10;99.90
8563;DHT22;16392;52.508;13.468;2022-08-21T05:52:18;18.10;99.90
8563;DHT22;16392;52.508;13.468;2022-08-21T05:54:45;18.10;99.90
8563;DHT22;16392;52.508;13.468;2022-08-21T05:57:16;18.10;99.90
8563;DHT22;16392;52.508;13.468;2022-08-21T05:59:43;18.10;99.90
8563;DHT22;16392;52.508;13.468;2022-08-21T06:02:09;18.20;99.90
8563;DHT22;16392;52.508;13.468;2022-08-21T06:04:36;18.20;99.90
8563;DHT22;16392;52.508;13.468;2022-08-21T06:07:03;18.20;99.90
8563;DHT22;16392;52.508;13.468;2022-08-21T06:09:31;18.30;99.90
8563;DHT22;16392;52.508;13.468;2022-08-21T06:11:57;18.30;99.90
8563;DHT22;16392;52.508;13.468;2022-08-21T06:14:25;18.30;99.90
8563;DHT22;16392;52.508;13.468;2022-08-21T06:16:52;18.30;99.90
8563;DHT22;16392;52.508;13.468;2022-08-21T06:19:18;18.40;99.90
8563;DHT22;16392;52.508;13.468;2022-08-21T06:21:45;18.50;99.90
8563;DHT22;16392;52.508;13.468;2022-08-21T06:24:12;18.60;99.90
8563;DHT22;16392;52.508;13.468;2022-08-21T06:26:38;18.70;99.90
8563;DHT22;16392;52.508;13.468;2022-08-21T06:29:05;18.70;99.90
8563;DHT22;16392;52.508;13.468;2022-08-21T06:31:34;18.70;99.90
8563;DHT22;16392;52.508;13.468;2022-08-21T06:34:00;18.70;99.90
8563;DHT22;16392;52.508;13.468;2022-08-21T06:36:27;18.90;99.90
8563;DHT22;16392;52.508;13.468;2022-08-21T06:38:53;19.10;99.90
8563;DHT22;16392;52.508;13.468;2022-08-21T06:41:20;19.20;99.90
8563;DHT22;16392;52.508;13.468;2022-08-21T06:43:47;19.40;99.90
8563;DHT22;16392;52.508;13.468;2022-08-21T06:46:14;19.40;99.90
8563;DHT22;16392;52.508;13.468;2022-08-21T06:48:42;19.40;99.90
8563;DHT22;16392;52.508;13.468;2022-08-21T06:51:09;19.50;99.90
8563;DHT22;16392;52.508;13.468;2022-08-21T06:53:35;19.80;99.90
8563;DHT22;16392;52.508;13.468;2022-08-21T06:56:03;19.70;99.90
8563;DHT22;16392;52.508;13.468;2022-08-21T06:58:30;19.90;99.90
8563;DHT22;16392;52.508;13.468;2022-08-21T07:00:56;20.00;99.90
8563;DHT22;16392;52.508;13.468;2022-08-21T07:03:26;20.10;99.90
8563;DHT22;16392;52.508;13.468;2022-08-21T07:05:55;20.40;99.90
8563;DHT22;16392;52.508;13.468;2022-08-21T07:08:24;20.20;99.90
8563;DHT22;16392;52.508;13.468;2022-08-21T07:10:52;20.10;99.90
8563;DHT22;16392;52.508;13.468;2022-08-21T07:13:19;20.20;99.90
8563;DHT22;16392;52.508;13.468;2022-08-21T07:15:46;20.50;99.90
8563;DHT22;16392;52.508;13.468;2022-08-21T07:18:13;20.90;99.90
8563;DHT22;16392;52.508;13.468;2022-08-21T07:20:40;20.90;99.90
8563;DHT22;16392;52.508;13.468;2022-08-21T07:23:11;20.60;99.90
8563;DHT22;16392;52.508;13.468;2022-08-21T07:25:38;20.70;99.90
8563;DHT22;16392;52.508;13.468;2022-08-21T07:28:05;20.90;99.90
8563;DHT22;16392;52.508;13.468;2022-08-21T07:30:32;20.60;99.90
8563;DHT22;16392;52.508;13.468;2022-08-21T07:32:58;20.90;99.90
8563;DHT22;16392;52.508;13.468;2022-08-21T07:35:25;20.60;99.90
8563;DHT22;16392;52.508;13.468;2022-08-21T07:37:53;20.60;99.90
8563;DHT22;16392;52.508;13.468;2022-08-21T07:40:21;20.60;99.90
8563;DHT22;16392;52.508;13.468;2022-08-21T07:42:48;20.50;99.90
8563;DHT22;16392;52.508;13.468;2022-08-21T07:45:18;20.50;99.90
8563;DHT22;16392;52.508;13.468;2022-08-21T07:47:45;20.60;99.90
8563;DHT22;16392;52.508;13.468;2022-08-21T07:50:13;20.70;99.90
8563;DHT22;16392;52.508;13.468;2022-08-21T07:52:40;21.00;99.90
8563;DHT22;16392;52.508;13.468;2022-08-21T07:55:09;21.50;75.50
8563;DHT22;16392;52.508;13.468;2022-08-21T07:57:38;21.40;26.60
8563;DHT22;16392;52.508;13.468;2022-08-21T08:00:07;21.30;29.30
8563;DHT22;16392;52.508;13.468;2022-08-21T08:02:35;21.00;22.40
8563;DHT22;16392;52.508;13.468;2022-08-21T08:05:03;20.90;58.10
8563;DHT22;16392;52.508;13.468;2022-08-21T08:07:29;21.30;11.10
8563;DHT22;16392;52.508;13.468;2022-08-21T08:09:56;21.60;1.00
8563;DHT22;16392;52.508;13.468;2022-08-21T08:12:24;21.50;1.00
8563;DHT22;16392;52.508;13.468;2022-08-21T08:14:56;21.80;1.00
8563;DHT22;16392;52.508;13.468;2022-08-21T08:17:24;22.40;1.00
8563;DHT22;16392;52.508;13.468;2022-08-21T08:19:51;22.10;1.00
8563;DHT22;16392;52.508;13.468;2022-08-21T08:22:20;21.70;1.00
8563;DHT22;16392;52.508;13.468;2022-08-21T08:24:50;21.70;1.00
8563;DHT22;16392;52.508;13.468;2022-08-21T08:27:17;21.80;1.00
8563;DHT22;16392;52.508;13.468;2022-08-21T08:29:45;22.10;1.00
8563;DHT22;16392;52.508;13.468;2022-08-21T08:32:13;22.50;1.00
8563;DHT22;16392;52.508;13.468;2022-08-21T08:34:40;22.70;99.90
8563;DHT22;16392;52.508;13.468;2022-08-21T08:37:08;23.20;99.90
8563;DHT22;16392;52.508;13.468;2022-08-21T08:39:35;23.30;1.00
8563;DHT22;16392;52.508;13.468;2022-08-21T08:42:06;23.50;99.90
8563;DHT22;16392;52.508;13.468;2022-08-21T08:44:35;23.60;1.00
8563;DHT22;16392;52.508;13.468;2022-08-21T08:47:03;23.10;1.00
8563;DHT22;16392;52.508;13.468;2022-08-21T08:49:36;23.30;98.70
8563;DHT22;16392;52.508;13.468;2022-08-21T08:52:11;23.20;1.00
8563;DHT22;16392;52.508;13.468;2022-08-21T08:54:45;22.90;1.00
8563;DHT22;16392;52.508;13.468;2022-08-21T08:57:16;22.70;99.90
8563;DHT22;16392;52.508;13.468;2022-08-21T08:59:45;22.50;99.90
8563;DHT22;16392;52.508;13.468;2022-08-21T09:02:15;22.70;98.60
8563;DHT22;16392;52.508;13.468;2022-08-21T09:04:45;22.70;99.90
8563;DHT22;16392;52.508;13.468;2022-08-21T09:07:18;22.90;1.00
8563;DHT22;16392;52.508;13.468;2022-08-21T09:10:02;22.90;99.90
8563;DHT22;16392;52.508;13.468;2022-08-21T09:12:38;22.60;1.00
8563;DHT22;16392;52.508;13.468;2022-08-21T09:15:13;22.50;99.90
8563;DHT22;16392;52.508;13.468;2022-08-21T09:17:55;22.30;1.00
8563;DHT22;16392;52.508;13.468;2022-08-21T09:20:33;22.50;99.90
8563;DHT22;16392;52.508;13.468;2022-08-21T09:23:11;22.70;99.90
8563;DHT22;16392;52.508;13.468;2022-08-21T09:25:45;22.60;1.00
8563;DHT22;16392;52.508;13.468;2022-08-21T09:28:16;22.30;1.00
8563;DHT22;16392;52.508;13.468;2022-08-21T09:30:43;22.40;99.90
8563;DHT22;16392;52.508;13.468;2022-08-21T09:33:11;22.30;1.00
8563;DHT22;16392;52.508;13.468;2022-08-21T09:35:51;22.20;1.00
8563;DHT22;16392;52.508;13.468;2022-08-21T09:38:26;22.10;14.70
8563;DHT22;16392;52.508;13.468;2022-08-21T09:40:58;22.40;64.70
8563;DHT22;16392;52.508;13.468;2022-08-21T09:43:25;22.30;6.50
8563;DHT22;16392;52.508;13.468;2022-08-21T09:46:08;22.20;99.90
8563;DHT22;16392;52.508;13.468;2022-08-21T09:48:44;22.00;99.90
8563;DHT22;16392;52.508;13.468;2022-08-21T09:51:16;22.10;1.00
8563;DHT22;16392;52.508;13.468;2022-08-21T09:53:47;22.30;1.00
8563;DHT22;16392;52.508;13.468;2022-08-21T09:56:20;22.40;1.00
8563;DHT22;16392;52.508;13.468;2022-08-21T09:59:25;22.90;21.50
8563;DHT22;16392;52.508;13.468;2022-08-21T10:01:53;23.30;1.00
8563;DHT22;16392;52.508;13.468;2022-08-21T10:04:27;23.60;98.70
8563;DHT22;16392;52.508;13.468;2022-08-21T10:07:06;24.00;1.00
8563;DHT22;16392;52.508;13.468;2022-08-21T10:09:34;23.80;1.00
8563;DHT22;16392;52.508;13.468;2022-08-21T10:12:09;23.80;99.90
8563;DHT22;16392;52.508;13.468;2022-08-21T10:14:48;23.80;99.90
8563;DHT22;16392;52.508;13.468;2022-08-21T10:17:21;24.20;99.90
8563;DHT22;16392;52.508;13.468;2022-08-21T10:19:57;24.30;99.90
8563;DHT22;16392;52.508;13.468;2022-08-21T10:22:35;24.70;99.90
8563;DHT22;16392;52.508;13.468;2022-08-21T10:25:10;24.70;1.00
8563;DHT22;16392;52.508;13.468;2022-08-21T10:27:47;24.50;64.50
8563;DHT22;16392;52.508;13.468;2022-08-21T10:30:21;24.60;1.00
8563;DHT22;16392;52.508;13.468;2022-08-21T10:33:07;24.60;1.00
8563;DHT22;16392;52.508;13.468;2022-08-21T10:35:43;24.80;1.00
8563;DHT22;16392;52.508;13.468;2022-08-21T10:38:40;24.80;99.90
8563;DHT22;16392;52.508;13.468;2022-08-21T10:41:14;24.90;99.90
8563;DHT22;16392;52.508;13.468;2022-08-21T10:43:51;24.90;99.90
8563;DHT22;16392;52.508;13.468;2022-08-21T10:46:30;24.90;99.90
8563;DHT22;16392;52.508;13.468;2022-08-21T10:49:08;24.70;99.90
8563;DHT22;16392;52.508;13.468;2022-08-21T10:51:43;23.90;1.00
8563;DHT22;16392;52.508;13.468;2022-08-21T10:54:21;23.80;1.00
8563;DHT22;16392;52.508;13.468;2022-08-21T10:56:58;24.30;1.00
8563;DHT22;16392;52.508;13.468;2022-08-21T10:59:29;24.80;99.90
8563;DHT22;16392;52.508;13.468;2022-08-21T11:02:00;25.10;99.90
8563;DHT22;16392;52.508;13.468;2022-08-21T11:04:34;25.10;99.90
8563;DHT22;16392;52.508;13.468;2022-08-21T11:07:14;24.50;99.90
8563;DHT22;16392;52.508;13.468;2022-08-21T11:09:45;24.20;1.00
8563;DHT22;16392;52.508;13.468;2022-08-21T11:12:20;24.20;1.00
8563;DHT22;16392;52.508;13.468;2022-08-21T11:14:55;24.60;1.00
8563;DHT22;16392;52.508;13.468;2022-08-21T11:17:29;25.10;99.90
8563;DHT22;16392;52.508;13.468;2022-08-21T11:20:03;25.70;1.00
8563;DHT22;16392;52.508;13.468;2022-08-21T11:22:35;25.00;1.00
8563;DHT22;16392;52.508;13.468;2022-08-21T11:25:09;24.90;87.50
8563;DHT22;16392;52.508;13.468;2022-08-21T11:27:42;24.80;1.00
8563;DHT22;16392;52.508;13.468;2022-08-21T11:30:10;24.60;1.00
8563;DHT22;16392;52.508;13.468;2022-08-21T11:33:06;24.60;9.40
8563;DHT22;16392;52.508;13.468;2022-08-21T11:35:42;24.30;1.00
8563;DHT22;16392;52.508;13.468;2022-08-21T11:38:20;24.60;27.10
8563;DHT22;16392;52.508;13.468;2022-08-21T11:41:05;24.10;1.00
8563;DHT22;16392;52.508;13.468;2022-08-21T11:43:38;24.20;1.00
8563;DHT22;16392;52.508;13.468;2022-08-21T11:46:17;24.30;1.00
8563;DHT22;16392;52.508;13.468;2022-08-21T11:48:53;24.90;1.00
8563;DHT22;16392;52.508;13.468;2022-08-21T11:51:28;25.00;1.00
8563;DHT22;16392;52.508;13.468;2022-08-21T11:54:03;25.30;1.00
8563;DHT22;16392;52.508;13.468;2022-08-21T11:56:35;25.40;1.00
8563;DHT22;16392;52.508;13.468;2022-08-21T11:59:09;25.30;1.00
8563;DHT22;16392;52.508;13.468;2022-08-21T12:01:41;25.10;1.00
8563;DHT22;16392;52.508;13.468;2022-08-21T12:04:17;25.70;1.00
8563;DHT22;16392;52.508;13.468;2022-08-21T12:06:44;25.70;1.00
8563;DHT22;16392;52.508;13.468;2022-08-21T12:09:29;26.70;1.00
8563;DHT22;16392;52.508;13.468;2022-08-21T12:12:03;27.20;1.00
8563;DHT22;16392;52.508;13.468;2022-08-21T12:14:41;26.50;1.00
8563;DHT22;16392;52.508;13.468;2022-08-21T12:17:18;26.20;1.00
8563;DHT22;16392;52.508;13.468;2022-08-21T12:19:45;25.60;1.00
8563;DHT22;16392;52.508;13.468;2022-08-21T12:22:13;26.00;1.00
8563;DHT22;16392;52.508;13.468;2022-08-21T12:24:42;26.30;1.00
8563;DHT22;16392;52.508;13.468;2022-08-21T12:27:26;27.00;1.00
8563;DHT22;16392;52.508;13.468;2022-08-21T12:29:58;26.60;1.00
8563;DHT22;16392;52.508;13.468;2022-08-21T12:32:28;26.70;1.00
8563;DHT22;16392;52.508;13.468;2022-08-21T12:35:01;26.90;1.00
8563;DHT22;16392;52.508;13.468;2022-08-21T12:37:37;27.50;1.00
8563;DHT22;16392;52.508;13.468;2022-08-21T12:40:11;27.20;1.00
8563;DHT22;16392;52.508;13.468;2022-08-21T12:42:44;27.70;1.00
8563;DHT22;16392;52.508;13.468;2022-08-21T12:45:19;28.10;1.00
8563;DHT22;16392;52.508;13.468;2022-08-21T12:47:48;28.50;1.00
8563;DHT22;16392;52.508;13.468;2022-08-21T12:50:20;28.70;1.00
8563;DHT22;16392;52.508;13.468;2022-08-21T12:52:59;28.40;1.00
8563;DHT22;16392;52.508;13.468;2022-08-21T12:55:29;26.80;1.00
8563;DHT22;16392;52.508;13.468;2022-08-21T12:57:57;26.80;1.00
8563;DHT22;16392;52.508;13.468;2022-08-21T13:00:26;26.70;1.00
8563;DHT22;16392;52.508;13.468;2022-08-21T13:02:53;26.50;1.00
8563;DHT22;16392;52.508;13.468;2022-08-21T13:05:28;26.70;1.00
8563;DHT22;16392;52.508;13.468;2022-08-21T13:07:55;26.50;1.00
8563;DHT22;16392;52.508;13.468;2022-08-21T13:10:25;26.40;1.00
8563;DHT22;16392;52.508;13.468;2022-08-21T13:12:54;26.90;1.00
8563;DHT22;16392;52.508;13.468;2022-08-21T13:15:29;27.30;1.00
8563;DHT22;16392;52.508;13.468;2022-08-21T13:17:56;26.70;1.00
8563;DHT22;16392;52.508;13.468;2022-08-21T13:20:29;27.00;1.00
8563;DHT22;16392;52.508;13.468;2022-08-21T13:22:56;27.40;1.00
8563;DHT22;16392;52.508;13.468;2022-08-21T13:25:26;27.80;1.00
8563;DHT22;16392;52.508;13.468;2022-08-21T13:27:59;27.60;1.00
8563;DHT22;16392;52.508;13.468;2022-08-21T13:30:28;28.10;1.00
8563;DHT22;16392;52.508;13.468;2022-08-21T13:32:59;28.20;1.00
8563;DHT22;16392;52.508;13.468;2022-08-21T13:35:29;28.50;1.00
8563;DHT22;16392;52.508;13.468;2022-08-21T13:37:58;27.80;1.00
8563;DHT22;16392;52.508;13.468;2022-08-21T13:40:28;26.90;1.00
8563;DHT22;16392;52.508;13.468;2022-08-21T13:42:56;26.60;1.00
8563;DHT22;16392;52.508;13.468;2022-08-21T13:45:31;27.40;1.00
8563;DHT22;16392;52.508;13.468;2022-08-21T13:48:01;27.40;1.00
8563;DHT22;16392;52.508;13.468;2022-08-21T13:50:29;26.70;1.00
8563;DHT22;16392;52.508;13.468;2022-08-21T13:52:59;26.70;1.00
8563;DHT22;16392;52.508;13.468;2022-08-21T13:55:35;27.00;1.00
8563;DHT22;16392;52.508;13.468;2022-08-21T13:58:04;27.40;1.00
8563;DHT22;16392;52.508;13.468;2022-08-21T14:00:32;27.40;1.00
8563;DHT22;16392;52.508;13.468;2022-08-21T14:03:05;26.80;1.00
8563;DHT22;16392;52.508;13.468;2022-08-21T14:05:34;26.60;1.00
8563;DHT22;16392;52.508;13.468;2022-08-21T14:08:05;26.50;1.00
8563;DHT22;16392;52.508;13.468;2022-08-21T14:10:36;25.80;1.00
8563;DHT22;16392;52.508;13.468;2022-08-21T14:13:05;25.50;1.00
8563;DHT22;16392;52.508;13.468;2022-08-21T14:15:34;25.10;1.00
8563;DHT22;16392;52.508;13.468;2022-08-21T14:18:13;25.10;1.00
8563;DHT22;16392;52.508;13.468;2022-08-21T14:20:40;24.90;1.00
8563;DHT22;16392;52.508;13.468;2022-08-21T14:23:08;25.30;1.00
8563;DHT22;16392;52.508;13.468;2022-08-21T14:25:40;25.70;1.00
8563;DHT22;16392;52.508;13.468;2022-08-21T14:28:15;26.00;1.00
8563;DHT22;16392;52.508;13.468;2022-08-21T14:30:45;25.60;1.00
8563;DHT22;16392;52.508;13.468;2022-08-21T14:33:18;25.00;1.00
8563;DHT22;16392;52.508;13.468;2022-08-21T14:35:47;24.90;1.00
8563;DHT22;16392;52.508;13.468;2022-08-21T14:38:14;24.70;1.00
8563;DHT22;16392;52.508;13.468;2022-08-21T14:40:42;24.20;1.00
8563;DHT22;16392;52.508;13.468;2022-08-21T14:43:09;24.20;1.00
8563;DHT22;16392;52.508;13.468;2022-08-21T14:45:36;24.20;1.00
8563;DHT22;16392;52.508;13.468;2022-08-21T14:48:07;24.30;1.00
8563;DHT22;16392;52.508;13.468;2022-08-21T14:50:35;24.10;1.00
8563;DHT22;16392;52.508;13.468;2022-08-21T14:53:02;24.20;1.00
8563;DHT22;16392;52.508;13.468;2022-08-21T14:55:30;24.00;1.00
8563;DHT22;16392;52.508;13.468;2022-08-21T14:58:17;24.10;1.00
8563;DHT22;16392;52.508;13.468;2022-08-21T15:00:44;24.10;1.00
8563;DHT22;16392;52.508;13.468;2022-08-21T15:03:10;24.10;1.00
8563;DHT22;16392;52.508;13.468;2022-08-21T15:05:38;24.10;1.00
8563;DHT22;16392;52.508;13.468;2022-08-21T15:08:05;24.20;1.00
8563;DHT22;16392;52.508;13.468;2022-08-21T15:10:33;24.00;1.00
8563;DHT22;16392;52.508;13.468;2022-08-21T15:13:00;24.10;1.00
8563;DHT22;16392;52.508;13.468;2022-08-21T15:15:36;24.10;1.00
8563;DHT22;16392;52.508;13.468;2022-08-21T15:18:05;24.00;1.00
8563;DHT22;16392;52.508;13.468;2022-08-21T15:20:32;24.00;8.40
8563;DHT22;16392;52.508;13.468;2022-08-21T15:23:00;24.00;1.00
8563;DHT22;16392;52.508;13.468;2022-08-21T15:25:27;23.80;1.00
8563;DHT22;16392;52.508;13.468;2022-08-21T15:27:53;23.70;1.00
8563;DHT22;16392;52.508;13.468;2022-08-21T15:30:21;23.70;4.00
8563;DHT22;16392;52.508;13.468;2022-08-21T15:32:47;23.60;1.00
8563;DHT22;16392;52.508;13.468;2022-08-21T15:35:15;23.70;37.90
8563;DHT22;16392;52.508;13.468;2022-08-21T15:37:42;23.60;46.00
8563;DHT22;16392;52.508;13.468;2022-08-21T15:40:11;23.50;66.70
8563;DHT22;16392;52.508;13.468;2022-08-21T15:42:40;23.40;99.90
8563;DHT22;16392;52.508;13.468;2022-08-21T15:45:08;23.30;99.90
8563;DHT22;16392;52.508;13.468;2022-08-21T15:47:36;23.50;99.90
8563;DHT22;16392;52.508;13.468;2022-08-21T15:50:06;23.40;99.90
8563;DHT22;16392;52.508;13.468;2022-08-21T15:52:34;23.50;99.90